Time;durP1;ratioP1;P1;durP2;ratioP2;P2;SDS_P1;SDS_P2;PMS_P1;PMS_P2;Temp;Humidity;BMP_temperature;BMP_pressure;BME280_temperature;BME280_humidity;BME280_pressure;Samples;Min_cycle;Max_cycle;Signal;HPM_P1;HPM_P2
2023/08/01 00:17:58;;;;;;;0.80;0.70;;;17.20;99.90;;;;;;5063524;28;20947;-71
2023/08/01 00:20:25;;;;;;;0.90;0.67;;;17.20;99.90;;;;;;5061707;28;20884;-71
2023/08/01 00:22:51;;;;;;;1.10;0.87;;;17.20;99.90;;;;;;5061551;28;20187;-71
2023/08/01 00:25:17;;;;;;;1.40;0.70;;;17.10;99.90;;;;;;5060162;28;20423;-71
2023/08/01 00:27:43;;;;;;;0.70;0.70;;;17.10;99.90;;;;;;5060054;28;20557;-71
2023/08/01 00:30:09;;;;;;;0.73;0.73;;;17.10;99.90;;;;;;5065792;28;20430;-71
2023/08/01 00:32:36;;;;;;;1.03;0.80;;;17.10;99.90;;;;;;5070328;28;20181;-72
2023/08/01 00:35:02;;;;;;;0.80;0.63;;;17.10;99.90;;;;;;5060395;28;20543;-72
2023/08/01 00:37:27;;;;;;;1.40;1.10;;;17.10;99.90;;;;;;5061892;28;20443;-72
2023/08/01 00:39:53;;;;;;;1.00;0.60;;;17.10;99.90;;;;;;5065158;28;20256;-72
2023/08/01 00:42:18;;;;;;;1.67;0.83;;;17.10;99.90;;;;;;5060123;28;20181;-72
2023/08/01 00:44:44;;;;;;;2.30;0.80;;;17.00;99.90;;;;;;5062770;28;20181;-72
2023/08/01 00:47:10;;;;;;;1.00;0.70;;;17.00;99.90;;;;;;5057906;28;20210;-72
2023/08/01 00:49:36;;;;;;;0.57;0.47;;;17.00;99.90;;;;;;5062772;28;20210;-72
2023/08/01 00:52:02;;;;;;;0.57;0.53;;;16.90;99.90;;;;;;5048924;28;20420;-72
2023/08/01 00:54:30;;;;;;;0.50;0.40;;;16.90;99.90;;;;;;5047557;28;20202;-72
2023/08/01 00:56:56;;;;;;;1.33;0.50;;;16.90;99.90;;;;;;5045321;28;20416;-72
2023/08/01 00:59:21;;;;;;;1.20;1.00;;;16.90;99.90;;;;;;5046699;28;20920;-72
2023/08/01 01:01:47;;;;;;;0.70;0.60;;;16.90;99.90;;;;;;5047592;28;20170;-72
2023/08/01 01:04:13;;;;;;;1.43;0.87;;;16.90;99.90;;;;;;5047399;28;20284;-71
2023/08/01 01:06:48;;;;;;;1.90;0.97;;;16.80;99.90;;;;;;5047149;28;20177;-72
2023/08/01 01:09:20;;;;;;;1.10;0.90;;;16.80;99.90;;;;;;5048148;28;20428;-72
2023/08/01 01:11:46;;;;;;;1.17;1.07;;;16.80;99.90;;;;;;5047433;28;20511;-72
2023/08/01 01:14:12;;;;;;;2.47;1.03;;;16.80;99.90;;;;;;5047535;28;20451;-72
2023/08/01 01:16:38;;;;;;;1.10;1.00;;;16.80;99.90;;;;;;5047320;28;20416;-72
2023/08/01 01:19:09;;;;;;;1.80;1.50;;;16.70;99.90;;;;;;5047630;28;20432;-72
2023/08/01 01:21:39;;;;;;;1.87;1.60;;;16.70;99.90;;;;;;5047202;28;20689;-72
2023/08/01 01:24:07;;;;;;;2.10;1.90;;;16.70;99.90;;;;;;5047398;28;20423;-72
2023/08/01 01:26:34;;;;;;;1.50;1.40;;;16.70;99.90;;;;;;5046776;28;20420;-71
2023/08/01 01:29:01;;;;;;;2.13;1.93;;;16.70;99.90;;;;;;5054265;28;20438;-71
2023/08/01 01:31:27;;;;;;;1.90;1.80;;;16.60;99.90;;;;;;5071364;28;20432;-71
2023/08/01 01:33:54;;;;;;;2.30;2.10;;;16.60;99.90;;;;;;5071298;28;20971;-71
2023/08/01 01:36:20;;;;;;;2.70;2.40;;;16.60;99.90;;;;;;5071017;28;20411;-72
2023/08/01 01:38:46;;;;;;;3.10;2.47;;;16.60;99.90;;;;;;5071322;28;20507;-71
2023/08/01 01:41:12;;;;;;;2.80;2.60;;;16.60;99.90;;;;;;5071369;28;20169;-71
2023/08/01 01:43:37;;;;;;;3.20;2.97;;;16.50;99.90;;;;;;5071231;28;20176;-71
2023/08/01 01:46:03;;;;;;;3.90;3.60;;;16.60;99.90;;;;;;5071395;28;20173;-71
2023/08/01 01:48:29;;;;;;;3.90;3.53;;;16.60;99.90;;;;;;5071137;28;20665;-72
2023/08/01 01:50:55;;;;;;;3.50;3.20;;;16.50;99.90;;;;;;5071110;28;20412;-72
2023/08/01 01:53:20;;;;;;;4.40;4.00;;;16.60;99.90;;;;;;5071006;28;20173;-72
2023/08/01 01:55:46;;;;;;;4.53;4.13;;;16.50;99.90;;;;;;5070269;28;20642;-72
2023/08/01 01:58:12;;;;;;;4.37;3.97;;;16.60;99.90;;;;;;5070932;28;20193;-71
2023/08/01 02:00:37;;;;;;;4.27;3.77;;;16.60;99.90;;;;;;5071035;28;20264;-71
2023/08/01 02:03:03;;;;;;;4.87;4.47;;;16.60;99.90;;;;;;5070616;28;20200;-72
2023/08/01 02:05:29;;;;;;;4.83;4.43;;;16.60;99.90;;;;;;5070239;28;20565;-71
2023/08/01 02:07:55;;;;;;;6.17;5.57;;;16.60;99.90;;;;;;5068476;28;20213;-71
2023/08/01 02:10:21;;;;;;;6.10;5.50;;;16.60;99.90;;;;;;5070958;28;20411;-71
2023/08/01 02:12:47;;;;;;;6.30;5.50;;;16.60;99.90;;;;;;5070495;28;21281;-71
2023/08/01 02:15:13;;;;;;;4.90;4.50;;;16.60;99.90;;;;;;5069910;28;20205;-71
2023/08/01 02:17:39;;;;;;;5.00;4.60;;;16.60;99.90;;;;;;5070309;28;20278;-71
2023/08/01 02:20:06;;;;;;;3.57;2.73;;;16.60;99.90;;;;;;5070464;28;20169;-71
2023/08/01 02:22:32;;;;;;;4.33;3.93;;;16.60;99.90;;;;;;5069231;28;20420;-71
2023/08/01 02:24:58;;;;;;;3.53;3.17;;;16.60;99.90;;;;;;5070123;28;20500;-71
2023/08/01 02:27:24;;;;;;;3.50;3.20;;;16.60;99.90;;;;;;5070150;28;20439;-72
2023/08/01 02:29:50;;;;;;;2.73;2.53;;;16.70;99.90;;;;;;5070723;28;20671;-71
2023/08/01 02:32:16;;;;;;;3.13;2.60;;;16.60;99.90;;;;;;5070035;28;20185;-72
2023/08/01 02:34:42;;;;;;;3.73;2.83;;;16.70;99.90;;;;;;5069719;28;20459;-71
2023/08/01 02:37:08;;;;;;;6.10;2.03;;;16.60;99.90;;;;;;5070160;28;20427;-72
2023/08/01 02:39:35;;;;;;;3.90;2.47;;;16.60;99.90;;;;;;5069830;28;20623;-72
2023/08/01 02:42:00;;;;;;;3.57;2.10;;;16.50;99.90;;;;;;5070116;28;20515;-71
2023/08/01 02:44:27;;;;;;;2.57;2.07;;;16.50;99.90;;;;;;5069491;28;20468;-71
2023/08/01 02:46:53;;;;;;;2.13;1.93;;;16.40;99.90;;;;;;5069878;28;20204;-71
2023/08/01 02:49:18;;;;;;;2.93;2.30;;;16.40;99.90;;;;;;5069998;28;20458;-72
2023/08/01 02:51:44;;;;;;;3.30;3.00;;;16.30;99.90;;;;;;5070001;28;20177;-71
2023/08/01 02:54:10;;;;;;;3.30;3.00;;;16.40;99.90;;;;;;5068438;28;20557;-72
2023/08/01 02:56:40;;;;;;;6.00;4.07;;;16.30;99.90;;;;;;5069406;28;20621;-72
2023/08/01 02:59:08;;;;;;;5.37;4.87;;;16.30;99.90;;;;;;5069929;28;20681;-72
2023/08/01 03:01:37;;;;;;;5.73;4.03;;;16.30;99.90;;;;;;5069745;28;20845;-72
2023/08/01 03:04:04;;;;;;;5.97;4.97;;;16.30;99.90;;;;;;5069547;28;20883;-71
2023/08/01 03:06:31;;;;;;;6.77;4.90;;;16.30;99.90;;;;;;5068863;28;20787;-72
2023/08/01 03:08:56;;;;;;;6.70;5.10;;;16.30;99.90;;;;;;5069357;28;20449;-71
2023/08/01 03:11:22;;;;;;;5.60;5.10;;;16.30;99.90;;;;;;5069655;28;20417;-72
2023/08/01 03:13:48;;;;;;;6.03;5.43;;;16.30;99.90;;;;;;5069121;28;20258;-72
2023/08/01 03:16:13;;;;;;;7.63;6.13;;;16.20;99.90;;;;;;5069475;28;20227;-72
2023/08/01 03:18:39;;;;;;;6.30;5.70;;;16.20;99.90;;;;;;5069211;28;20673;-71
2023/08/01 03:21:05;;;;;;;9.50;7.43;;;16.20;99.90;;;;;;5068426;28;20169;-71
2023/08/01 03:23:30;;;;;;;8.10;7.20;;;16.20;99.90;;;;;;5069199;28;20173;-72
2023/08/01 03:25:56;;;;;;;7.70;6.60;;;16.20;99.90;;;;;;5068907;28;20165;-72
2023/08/01 03:28:22;;;;;;;10.83;7.40;;;16.20;99.90;;;;;;5069244;28;20201;-71
2023/08/01 03:30:50;;;;;;;7.90;7.10;;;16.20;99.90;;;;;;5069044;28;20302;-71
2023/08/01 03:33:16;;;;;;;10.03;8.40;;;16.20;99.90;;;;;;5069167;28;20177;-71
2023/08/01 03:35:42;;;;;;;8.87;8.00;;;16.20;99.90;;;;;;5068563;28;20497;-71
2023/08/01 03:38:07;;;;;;;10.00;8.60;;;16.30;99.90;;;;;;5069001;28;20451;-71
2023/08/01 03:40:33;;;;;;;9.53;8.63;;;16.30;99.90;;;;;;5069197;28;20653;-72
2023/08/01 03:42:59;;;;;;;11.80;10.70;;;16.30;99.90;;;;;;5069038;28;20172;-71
2023/08/01 03:45:25;;;;;;;11.77;10.10;;;16.30;99.90;;;;;;5068536;28;20180;-71
2023/08/01 03:47:50;;;;;;;11.47;9.87;;;16.30;99.90;;;;;;5067391;28;20208;-72
2023/08/01 03:50:16;;;;;;;13.10;9.57;;;16.30;99.90;;;;;;5068121;28;20189;-71
2023/08/01 03:52:42;;;;;;;15.37;10.80;;;16.30;99.90;;;;;;5068686;28;20548;-71
2023/08/01 03:55:08;;;;;;;15.03;12.77;;;16.20;99.90;;;;;;5067795;28;20507;-71
2023/08/01 03:57:34;;;;;;;12.63;11.33;;;16.20;99.90;;;;;;5068568;28;20724;-72
2023/08/01 04:00:00;;;;;;;12.93;11.57;;;16.20;99.90;;;;;;5068421;28;20419;-72
2023/08/01 04:02:26;;;;;;;14.03;12.27;;;16.30;99.90;;;;;;5068483;28;20181;-71
2023/08/01 04:04:51;;;;;;;16.63;13.27;;;16.30;99.90;;;;;;5068025;28;20412;-72
2023/08/01 04:07:18;;;;;;;14.37;12.00;;;16.30;99.90;;;;;;5067500;28;20199;-72
2023/08/01 04:09:44;;;;;;;13.77;12.33;;;16.30;99.90;;;;;;5068567;28;20657;-71
2023/08/01 04:12:09;;;;;;;17.40;12.10;;;16.20;99.90;;;;;;5068208;28;20404;-72
2023/08/01 04:14:35;;;;;;;12.87;11.47;;;16.30;99.90;;;;;;5067982;28;20205;-71
2023/08/01 04:17:01;;;;;;;16.53;12.30;;;16.20;99.90;;;;;;5068537;28;20736;-71
2023/08/01 04:19:26;;;;;;;13.23;11.93;;;16.20;99.90;;;;;;5068068;28;20558;-71
2023/08/01 04:21:52;;;;;;;15.73;11.87;;;16.30;99.90;;;;;;5068357;28;20177;-72
2023/08/01 04:24:18;;;;;;;13.17;11.33;;;16.20;99.90;;;;;;5067589;28;20234;-71
2023/08/01 04:26:43;;;;;;;14.10;10.80;;;16.20;99.90;;;;;;5068098;28;20177;-71
2023/08/01 04:29:09;;;;;;;18.73;10.33;;;16.20;99.90;;;;;;5067987;28;20184;-72
2023/08/01 04:31:35;;;;;;;12.80;10.17;;;16.20;99.90;;;;;;5068048;28;20189;-72
2023/08/01 04:34:00;;;;;;;13.60;11.00;;;16.20;99.90;;;;;;5067546;28;20197;-72
2023/08/01 04:36:26;;;;;;;15.70;9.17;;;16.20;99.90;;;;;;5067593;28;20183;-72
2023/08/01 04:38:51;;;;;;;14.03;9.60;;;16.20;99.90;;;;;;5068036;28;20193;-72
2023/08/01 04:41:17;;;;;;;10.77;8.30;;;16.10;99.90;;;;;;5067898;28;20200;-71
2023/08/01 04:43:43;;;;;;;10.40;9.03;;;16.10;99.90;;;;;;5068034;28;20177;-71
2023/08/01 04:46:08;;;;;;;10.97;9.17;;;16.00;99.90;;;;;;5067577;28;20173;-72
2023/08/01 04:48:34;;;;;;;9.30;8.17;;;15.90;99.90;;;;;;5067594;28;20195;-72
2023/08/01 04:51:00;;;;;;;11.43;9.83;;;15.90;99.90;;;;;;5062335;28;20174;-72
2023/08/01 04:53:25;;;;;;;12.50;8.43;;;16.00;99.90;;;;;;5061408;28;20246;-72
2023/08/01 04:55:51;;;;;;;12.90;8.13;;;16.00;99.90;;;;;;5063552;28;20243;-72
2023/08/01 04:58:17;;;;;;;12.77;8.50;;;16.00;99.90;;;;;;5060802;28;20244;-72
2023/08/01 05:00:42;;;;;;;10.83;8.80;;;15.90;99.90;;;;;;5064579;28;20177;-72
2023/08/01 05:03:08;;;;;;;12.53;8.90;;;15.90;99.90;;;;;;5066442;28;20205;-71
2023/08/01 05:05:34;;;;;;;14.17;10.43;;;15.90;99.90;;;;;;5066997;28;20215;-71
2023/08/01 05:07:59;;;;;;;12.17;9.13;;;15.90;99.90;;;;;;5067525;28;20200;-71
2023/08/01 05:10:25;;;;;;;12.03;9.50;;;15.90;99.90;;;;;;5065574;28;20172;-71
2023/08/01 05:12:51;;;;;;;15.67;11.60;;;15.90;99.90;;;;;;5067081;28;20187;-71
2023/08/01 05:15:16;;;;;;;11.00;9.90;;;15.80;99.90;;;;;;5067062;28;20689;-71
2023/08/01 05:17:42;;;;;;;14.23;10.47;;;15.80;99.90;;;;;;5067791;28;20200;-71
2023/08/01 05:20:08;;;;;;;14.70;11.67;;;15.80;99.90;;;;;;5067895;28;20219;-71
2023/08/01 05:22:34;;;;;;;17.30;13.20;;;15.90;99.90;;;;;;5067631;28;20248;-71
2023/08/01 05:25:01;;;;;;;13.67;11.97;;;15.90;99.90;;;;;;5066877;28;20411;-71
2023/08/01 05:27:27;;;;;;;17.50;15.13;;;15.90;99.90;;;;;;5062549;28;20495;-71
2023/08/01 05:29:53;;;;;;;18.33;14.20;;;15.80;99.90;;;;;;5067191;28;20415;-71
2023/08/01 05:32:18;;;;;;;20.53;14.87;;;15.80;99.90;;;;;;5067562;28;20634;-71
2023/08/01 05:34:44;;;;;;;15.63;13.17;;;15.80;99.90;;;;;;5061619;28;20656;-71
2023/08/01 05:37:10;;;;;;;22.90;15.33;;;15.80;99.90;;;;;;5063928;28;20274;-71
2023/08/01 05:39:35;;;;;;;18.53;15.20;;;15.90;99.90;;;;;;5067861;28;20339;-71
2023/08/01 05:42:01;;;;;;;16.80;13.73;;;15.90;99.90;;;;;;5067426;28;20173;-71
2023/08/01 05:44:27;;;;;;;18.37;15.03;;;15.90;99.90;;;;;;5066969;28;20181;-71
2023/08/01 05:46:52;;;;;;;17.97;14.63;;;16.00;99.90;;;;;;5059604;28;20196;-71
2023/08/01 05:49:18;;;;;;;19.20;16.67;;;16.00;99.90;;;;;;5065809;28;20177;-71
2023/08/01 05:51:44;;;;;;;19.50;15.53;;;16.00;99.90;;;;;;5067166;28;20196;-71
2023/08/01 05:54:09;;;;;;;19.03;15.93;;;16.00;99.90;;;;;;5067038;28;20283;-72
2023/08/01 05:56:35;;;;;;;17.17;14.60;;;15.90;99.90;;;;;;5060570;28;20242;-71
2023/08/01 05:59:01;;;;;;;21.77;16.40;;;15.90;99.90;;;;;;5063725;28;20685;-72
2023/08/01 06:01:26;;;;;;;19.30;15.80;;;15.90;99.90;;;;;;5065896;28;20234;-71
2023/08/01 06:03:52;;;;;;;20.87;15.40;;;15.90;99.90;;;;;;5064622;28;20829;-71
2023/08/01 06:06:18;;;;;;;20.47;15.97;;;15.90;99.90;;;;;;5063097;28;20647;-71
2023/08/01 06:08:44;;;;;;;19.93;15.77;;;16.00;99.90;;;;;;5064010;28;20227;-72
2023/08/01 06:11:09;;;;;;;19.83;15.30;;;16.00;99.90;;;;;;5063927;28;20431;-72
2023/08/01 06:13:35;;;;;;;18.83;15.83;;;16.00;99.90;;;;;;5064510;28;20208;-72
2023/08/01 06:16:01;;;;;;;20.17;17.57;;;16.00;99.90;;;;;;5069890;28;20216;-72
2023/08/01 06:18:26;;;;;;;19.50;15.40;;;16.00;99.90;;;;;;5068772;28;20189;-72
2023/08/01 06:20:52;;;;;;;20.70;18.40;;;16.00;99.90;;;;;;5068182;28;20184;-72
2023/08/01 06:23:18;;;;;;;21.07;17.20;;;16.00;99.90;;;;;;5070520;28;20729;-72
2023/08/01 06:25:44;;;;;;;21.83;16.90;;;16.00;99.90;;;;;;5069839;28;20173;-72
2023/08/01 06:28:09;;;;;;;19.10;16.63;;;16.00;99.90;;;;;;5070584;28;20445;-72
2023/08/01 06:30:35;;;;;;;19.50;16.17;;;16.00;99.90;;;;;;5070120;28;20204;-72
2023/08/01 06:33:01;;;;;;;21.37;17.50;;;16.10;99.90;;;;;;5070425;28;20178;-72
2023/08/01 06:35:26;;;;;;;20.10;16.80;;;16.10;99.90;;;;;;5069431;28;20240;-72
2023/08/01 06:37:52;;;;;;;21.77;15.97;;;16.20;99.90;;;;;;5070396;28;20193;-72
2023/08/01 06:40:18;;;;;;;21.00;16.63;;;16.20;99.90;;;;;;5070442;28;20599;-72
2023/08/01 06:42:43;;;;;;;18.33;15.87;;;16.20;99.90;;;;;;5070145;28;20570;-72
2023/08/01 06:45:09;;;;;;;20.03;16.37;;;16.20;99.90;;;;;;5069906;28;20181;-72
2023/08/01 06:47:35;;;;;;;19.77;15.57;;;16.30;99.90;;;;;;5069867;28;20271;-72
2023/08/01 06:50:00;;;;;;;17.47;14.80;;;16.20;99.90;;;;;;5068773;28;20173;-72
2023/08/01 06:52:26;;;;;;;19.20;15.17;;;16.30;99.90;;;;;;5069153;28;20181;-72
2023/08/01 06:54:52;;;;;;;18.77;14.47;;;16.30;99.90;;;;;;5069340;28;20228;-72
2023/08/01 06:57:18;;;;;;;16.27;12.73;;;16.30;99.90;;;;;;5069893;28;20665;-72
2023/08/01 06:59:43;;;;;;;16.80;13.40;;;16.30;99.90;;;;;;5069664;28;20181;-72
2023/08/01 07:02:09;;;;;;;17.63;13.50;;;16.30;99.90;;;;;;5069685;28;20173;-72
2023/08/01 07:04:34;;;;;;;14.87;12.23;;;16.40;99.90;;;;;;5067895;28;20188;-72
2023/08/01 07:07:01;;;;;;;19.03;13.23;;;16.30;99.90;;;;;;5069824;28;20258;-72
2023/08/01 07:09:27;;;;;;;15.13;12.90;;;16.20;99.90;;;;;;5068529;28;20453;-72
2023/08/01 07:11:53;;;;;;;18.23;12.73;;;16.30;99.90;;;;;;5069598;28;20585;-72
2023/08/01 07:14:18;;;;;;;17.60;13.87;;;16.30;99.90;;;;;;5069061;28;20286;-72
2023/08/01 07:16:44;;;;;;;18.53;13.80;;;16.30;99.90;;;;;;5069099;28;20418;-72
2023/08/01 07:19:10;;;;;;;16.90;12.43;;;16.30;99.90;;;;;;5069365;28;20185;-72
2023/08/01 07:21:35;;;;;;;15.77;11.83;;;16.30;99.90;;;;;;5069803;28;20222;-72
2023/08/01 07:24:01;;;;;;;13.50;11.63;;;16.30;99.90;;;;;;5069192;28;20212;-72
2023/08/01 07:26:28;;;;;;;13.30;11.53;;;16.40;99.90;;;;;;5068859;28;20531;-72
2023/08/01 07:28:54;;;;;;;15.60;11.17;;;16.40;99.90;;;;;;5069264;28;20564;-72
2023/08/01 07:31:20;;;;;;;14.53;10.80;;;16.30;99.90;;;;;;5069104;28;20424;-72
2023/08/01 07:33:45;;;;;;;14.63;12.40;;;16.40;99.90;;;;;;5068703;28;20646;-72
2023/08/01 07:36:11;;;;;;;12.67;11.10;;;16.40;99.90;;;;;;5068801;28;20177;-72
2023/08/01 07:38:36;;;;;;;12.67;11.33;;;16.50;99.90;;;;;;5068689;28;20189;-72
2023/08/01 07:41:04;;;;;;;14.57;11.70;;;16.50;99.90;;;;;;5069207;28;20527;-72
2023/08/01 07:43:30;;;;;;;14.40;10.90;;;16.50;99.90;;;;;;5068574;28;20184;-72
2023/08/01 07:45:59;;;;;;;14.53;10.67;;;16.40;99.90;;;;;;5069313;28;20415;-72
2023/08/01 07:48:25;;;;;;;12.20;10.67;;;16.40;99.90;;;;;;5068642;28;20428;-72
2023/08/01 07:50:51;;;;;;;16.40;11.97;;;16.40;99.90;;;;;;5068899;28;20423;-72
2023/08/01 07:53:16;;;;;;;16.03;10.23;;;16.50;99.90;;;;;;5068661;28;20758;-73
2023/08/01 07:55:42;;;;;;;18.40;11.73;;;16.60;99.90;;;;;;5067805;28;20205;-72
2023/08/01 07:58:07;;;;;;;11.30;10.10;;;16.70;99.90;;;;;;5068627;28;20212;-73
2023/08/01 08:00:36;;;;;;;11.40;9.50;;;16.80;99.90;;;;;;5068509;28;20222;-73
2023/08/01 08:03:02;;;;;;;11.00;9.20;;;16.90;99.90;;;;;;5068795;28;20567;-73
2023/08/01 08:05:28;;;;;;;13.80;9.30;;;17.00;99.90;;;;;;5067974;28;20423;-72
2023/08/01 08:07:53;;;;;;;13.60;9.00;;;17.00;99.90;;;;;;5068697;28;20193;-72
2023/08/01 08:10:19;;;;;;;15.80;9.47;;;17.10;99.90;;;;;;5067844;28;20185;-72
2023/08/01 08:12:45;;;;;;;10.07;8.30;;;17.10;99.90;;;;;;5068091;28;20196;-72
2023/08/01 08:15:10;;;;;;;11.20;9.00;;;16.90;99.90;;;;;;5066610;28;20646;-72
2023/08/01 08:17:36;;;;;;;11.60;8.80;;;16.80;99.90;;;;;;5068021;28;20201;-72
2023/08/01 08:20:03;;;;;;;9.93;8.70;;;16.80;99.90;;;;;;5068423;28;20177;-72
2023/08/01 08:22:29;;;;;;;11.00;9.10;;;16.80;99.90;;;;;;5068858;28;20169;-72
2023/08/01 08:24:54;;;;;;;11.53;9.03;;;16.80;99.90;;;;;;5067381;28;20415;-72
2023/08/01 08:27:20;;;;;;;10.13;8.27;;;16.90;99.90;;;;;;5068239;28;20260;-72
2023/08/01 08:29:46;;;;;;;9.67;8.33;;;17.00;99.90;;;;;;5067962;28;20185;-73
2023/08/01 08:32:12;;;;;;;10.20;7.93;;;17.10;99.90;;;;;;5068014;28;20569;-72
2023/08/01 08:34:39;;;;;;;10.10;9.00;;;17.20;99.90;;;;;;5067550;28;20685;-72
2023/08/01 08:37:05;;;;;;;10.43;8.80;;;17.20;99.90;;;;;;5067424;28;20185;-72
2023/08/01 08:39:31;;;;;;;10.17;8.33;;;17.30;99.90;;;;;;5067683;28;20457;-72
2023/08/01 08:41:57;;;;;;;10.83;9.23;;;17.30;99.90;;;;;;5066454;28;20407;-72
2023/08/01 08:44:24;;;;;;;10.80;8.90;;;17.40;99.90;;;;;;5067500;28;20181;-72
2023/08/01 08:46:54;;;;;;;10.10;8.47;;;17.40;99.90;;;;;;5067546;28;20411;-72
2023/08/01 08:49:24;;;;;;;10.13;8.23;;;17.50;99.90;;;;;;5067985;28;20437;-73
2023/08/01 08:51:49;;;;;;;11.27;9.33;;;17.50;99.90;;;;;;5068020;28;20830;-72
2023/08/01 08:54:20;;;;;;;12.00;10.20;;;17.50;99.90;;;;;;5067554;28;20516;-72
2023/08/01 08:56:46;;;;;;;9.27;8.23;;;17.40;99.90;;;;;;5067672;28;20180;-72
2023/08/01 08:59:12;;;;;;;11.40;9.00;;;17.40;99.90;;;;;;5067812;28;20412;-72
2023/08/01 09:01:39;;;;;;;12.00;9.57;;;17.40;99.90;;;;;;5067846;28;20490;-73
2023/08/01 09:04:05;;;;;;;9.70;8.80;;;17.40;99.90;;;;;;5067144;28;20427;-72
2023/08/01 09:06:44;;;;;;;10.13;8.00;;;17.30;99.90;;;;;;5067563;28;20415;-73
2023/08/01 09:09:12;;;;;;;11.53;8.30;;;17.30;99.90;;;;;;5067062;28;20411;-72
2023/08/01 09:11:51;;;;;;;11.17;9.37;;;17.20;99.90;;;;;;5067691;28;20445;-72
2023/08/01 09:14:18;;;;;;;9.77;7.90;;;17.30;99.90;;;;;;5067154;28;20708;-72
2023/08/01 09:16:46;;;;;;;9.23;7.50;;;17.40;99.90;;;;;;5067162;28;20414;-72
2023/08/01 09:19:17;;;;;;;12.00;8.07;;;17.50;99.90;;;;;;5067690;28;20419;-73
2023/08/01 09:21:43;;;;;;;10.00;8.40;;;17.60;99.90;;;;;;5067343;28;20410;-72
2023/08/01 09:24:12;;;;;;;10.30;8.20;;;17.70;99.90;;;;;;5067201;28;20490;-73
2023/08/01 09:26:39;;;;;;;10.00;8.07;;;17.80;99.90;;;;;;5067446;28;20413;-72
2023/08/01 09:29:05;;;;;;;10.70;7.80;;;17.90;99.90;;;;;;5067308;28;20995;-72
2023/08/01 09:31:33;;;;;;;11.50;8.20;;;18.10;99.90;;;;;;5067309;28;20780;-72
2023/08/01 09:34:00;;;;;;;11.60;8.10;;;18.10;99.90;;;;;;5065627;28;20592;-73
2023/08/01 09:36:26;;;;;;;9.10;8.20;;;18.10;99.90;;;;;;5067203;28;20469;-72
2023/08/01 09:38:59;;;;;;;8.70;7.80;;;18.10;99.90;;;;;;5067461;28;20423;-73
2023/08/01 09:41:24;;;;;;;10.57;6.93;;;18.20;99.90;;;;;;5067508;28;20404;-72
2023/08/01 09:43:50;;;;;;;8.67;7.87;;;18.20;99.90;;;;;;5066910;28;20992;-73
2023/08/01 09:46:16;;;;;;;10.83;8.47;;;18.30;99.90;;;;;;5067031;28;20197;-72
2023/08/01 09:48:43;;;;;;;8.67;7.20;;;18.40;99.90;;;;;;5068032;28;20189;-72
2023/08/01 09:51:15;;;;;;;11.07;7.67;;;18.60;99.90;;;;;;5071195;28;20170;-72
2023/08/01 09:53:48;;;;;;;7.27;6.57;;;18.70;99.90;;;;;;5070775;28;20511;-73
2023/08/01 09:56:20;;;;;;;9.37;6.50;;;18.70;99.90;;;;;;5070958;28;20422;-72
2023/08/01 09:58:46;;;;;;;6.80;6.10;;;18.80;99.90;;;;;;5070997;28;20459;-72
2023/08/01 10:01:17;;;;;;;7.37;6.67;;;18.90;99.90;;;;;;5071073;28;20486;-72
2023/08/01 10:03:49;;;;;;;6.73;6.00;;;19.00;99.90;;;;;;5070381;28;20431;-73
2023/08/01 10:06:23;;;;;;;5.83;5.33;;;19.10;99.90;;;;;;5069449;28;20765;-72
2023/08/01 10:08:50;;;;;;;7.87;5.73;;;19.20;99.90;;;;;;5070761;28;20525;-72
2023/08/01 10:11:22;;;;;;;10.43;6.40;;;19.30;99.90;;;;;;5069566;28;20416;-72
2023/08/01 10:13:48;;;;;;;6.50;5.90;;;19.50;99.90;;;;;;5070284;28;20460;-72
2023/08/01 10:16:15;;;;;;;7.80;5.40;;;19.50;99.90;;;;;;5070586;28;20748;-72
2023/08/01 10:18:41;;;;;;;5.80;4.97;;;19.40;99.90;;;;;;5070522;28;20513;-73
2023/08/01 10:21:11;;;;;;;6.57;4.80;;;19.20;99.90;;;;;;5070548;28;20411;-72
2023/08/01 10:23:38;;;;;;;6.83;5.23;;;19.00;99.90;;;;;;5070305;28;20430;-72
2023/08/01 10:26:06;;;;;;;6.50;4.80;;;18.70;99.90;;;;;;5070163;28;20422;-72
2023/08/01 10:28:33;;;;;;;5.73;5.13;;;18.50;99.90;;;;;;5070260;28;20434;-73
2023/08/01 10:31:08;;;;;;;9.30;6.00;;;18.30;99.90;;;;;;5055318;28;20409;-72
2023/08/01 10:33:34;;;;;;;6.87;6.17;;;18.10;99.90;;;;;;5090441;28;20418;-72
2023/08/01 10:36:00;;;;;;;8.10;5.90;;;18.00;99.90;;;;;;5080202;28;20456;-72
2023/08/01 10:38:26;;;;;;;9.47;6.70;;;17.80;99.90;;;;;;5053520;28;20443;-72
2023/08/01 10:40:51;;;;;;;9.50;6.60;;;17.90;99.90;;;;;;5064094;28;20180;-72
2023/08/01 10:43:24;;;;;;;8.87;6.60;;;18.00;99.90;;;;;;5064079;28;20173;-73
2023/08/01 10:46:04;;;;;;;6.93;6.30;;;18.20;99.90;;;;;;5057352;28;20197;-73
2023/08/01 10:48:29;;;;;;;7.30;6.27;;;18.40;99.90;;;;;;5060594;28;20440;-72
2023/08/01 10:50:56;;;;;;;11.83;7.23;;;18.60;99.90;;;;;;5061398;28;20968;-73
2023/08/01 10:53:22;;;;;;;8.50;7.00;;;18.70;99.90;;;;;;5060827;28;20196;-73
2023/08/01 10:55:48;;;;;;;7.00;6.30;;;18.90;99.90;;;;;;5065032;28;20455;-72
2023/08/01 10:58:15;;;;;;;7.10;6.17;;;18.90;99.90;;;;;;5057969;28;20819;-73
2023/08/01 11:00:42;;;;;;;6.87;6.27;;;19.10;99.90;;;;;;5064365;28;20419;-72
2023/08/01 11:03:08;;;;;;;7.00;6.30;;;19.20;99.90;;;;;;5058437;28;20435;-72
2023/08/01 11:05:34;;;;;;;8.40;5.83;;;19.30;99.90;;;;;;5063167;28;20770;-73
2023/08/01 11:08:02;;;;;;;8.57;5.63;;;19.30;99.90;;;;;;5065021;28;20667;-72
2023/08/01 11:10:32;;;;;;;7.17;5.83;;;19.10;99.90;;;;;;5063572;28;20208;-72
2023/08/01 11:12:59;;;;;;;5.53;5.03;;;19.00;99.90;;;;;;5067842;28;20426;-72
2023/08/01 11:15:25;;;;;;;8.73;5.60;;;18.80;99.90;;;;;;5052391;28;20451;-72
2023/08/01 11:17:53;;;;;;;6.60;5.27;;;18.50;99.90;;;;;;5060578;28;20439;-72
2023/08/01 11:20:21;;;;;;;5.63;4.70;;;18.30;99.90;;;;;;5067242;28;20427;-72
2023/08/01 11:22:57;;;;;;;9.83;4.50;;;18.10;99.90;;;;;;5059766;28;20446;-72
2023/08/01 11:25:36;;;;;;;6.50;4.33;;;18.00;99.90;;;;;;5066200;28;20497;-73
2023/08/01 11:28:13;;;;;;;4.73;4.33;;;17.90;99.90;;;;;;5057895;28;20486;-73
2023/08/01 11:30:40;;;;;;;5.70;4.93;;;17.90;99.90;;;;;;5065392;28;20420;-72
2023/08/01 11:33:20;;;;;;;7.90;6.50;;;17.90;99.90;;;;;;5065723;28;20502;-72
2023/08/01 11:35:50;;;;;;;8.20;4.73;;;17.80;99.90;;;;;;5058784;28;20581;-72
2023/08/01 11:38:16;;;;;;;5.87;4.57;;;17.60;99.90;;;;;;5061377;28;20436;-73
2023/08/01 11:40:42;;;;;;;5.10;4.40;;;17.50;99.90;;;;;;5066447;28;20980;-72
2023/08/01 11:43:08;;;;;;;4.77;4.20;;;17.50;99.90;;;;;;5059371;28;20507;-72
2023/08/01 11:45:34;;;;;;;5.00;4.13;;;17.40;99.90;;;;;;5065023;28;20519;-72
2023/08/01 11:47:59;;;;;;;4.80;3.90;;;17.30;99.90;;;;;;5057154;28;20208;-72
2023/08/01 11:50:26;;;;;;;6.10;4.80;;;17.20;99.90;;;;;;5062184;28;20185;-73
2023/08/01 11:52:52;;;;;;;5.80;4.43;;;17.10;99.90;;;;;;5063331;28;20681;-72
2023/08/01 11:55:22;;;;;;;4.43;3.67;;;17.10;99.90;;;;;;5063080;28;20971;-72
2023/08/01 11:57:52;;;;;;;6.20;4.50;;;17.20;99.90;;;;;;5061652;28;20434;-73
2023/08/01 12:00:27;;;;;;;5.97;4.10;;;17.20;99.90;;;;;;5061269;28;20418;-72
2023/08/01 12:03:06;;;;;;;6.03;4.57;;;17.20;99.90;;;;;;5061051;28;20444;-72
2023/08/01 12:05:32;;;;;;;6.20;4.17;;;17.40;99.90;;;;;;5059571;28;20415;-73
2023/08/01 12:08:14;;;;;;;5.83;4.53;;;17.50;99.90;;;;;;5064667;28;20443;-73
2023/08/01 12:10:42;;;;;;;4.90;4.00;;;17.70;99.90;;;;;;5056241;28;20178;-73
2023/08/01 12:13:20;;;;;;;9.30;5.30;;;17.90;99.90;;;;;;5060462;28;20762;-73
2023/08/01 12:15:48;;;;;;;7.17;5.90;;;18.20;99.90;;;;;;5067785;28;20513;-72
2023/08/01 12:18:29;;;;;;;6.20;4.80;;;18.50;99.90;;;;;;5060963;28;20436;-73
2023/08/01 12:20:55;;;;;;;7.53;5.60;;;18.60;99.90;;;;;;5062528;28;20427;-72
2023/08/01 12:23:21;;;;;;;7.03;4.83;;;18.40;99.90;;;;;;5059108;28;20503;-73
2023/08/01 12:25:47;;;;;;;7.30;5.63;;;18.30;99.90;;;;;;5061096;28;20510;-72
2023/08/01 12:28:16;;;;;;;6.00;5.40;;;18.10;99.90;;;;;;5063875;28;20202;-72
2023/08/01 12:30:43;;;;;;;7.60;6.23;;;18.00;99.90;;;;;;5066877;28;20426;-73
2023/08/01 12:33:09;;;;;;;6.47;5.87;;;18.00;99.90;;;;;;5064158;28;20408;-73
2023/08/01 12:35:38;;;;;;;6.57;5.73;;;18.00;99.90;;;;;;5059602;28;20485;-73
2023/08/01 12:38:04;;;;;;;10.07;6.47;;;18.10;99.90;;;;;;5063297;28;20481;-73
2023/08/01 12:40:30;;;;;;;6.20;5.60;;;18.10;99.90;;;;;;5060656;28;20415;-72
2023/08/01 12:42:55;;;;;;;7.80;6.20;;;18.10;99.90;;;;;;5060894;28;20217;-73
2023/08/01 12:45:21;;;;;;;6.40;5.80;;;18.20;99.90;;;;;;5066610;28;20868;-72
2023/08/01 12:47:49;;;;;;;5.90;5.10;;;18.10;99.90;;;;;;5059807;28;20205;-72
2023/08/01 12:50:15;;;;;;;8.30;6.50;;;18.20;99.90;;;;;;5065186;28;20219;-73
2023/08/01 12:52:40;;;;;;;8.90;6.20;;;18.20;99.90;;;;;;5058797;28;20456;-73